createdAt,value
2023-04-20T00:02:54.126Z,-18439.00
2023-04-20T00:05:57.195Z,-18439.53
2023-04-20T00:09:01.198Z,-18440.91
2023-04-20T00:12:05.113Z,-18437.34
2023-04-20T00:15:08.099Z,-18438.44
2023-04-20T00:18:11.390Z,-18437.91
2023-04-20T00:21:15.047Z,-18436.53
2023-04-20T00:24:17.882Z,-18434.87
2023-04-20T00:27:20.433Z,-18435.03
2023-04-20T00:30:23.886Z,-18436.13
2023-04-20T00:33:26.406Z,-18433.22
2023-04-20T00:36:30.079Z,-18431.31
2023-04-20T00:39:34.321Z,-18429.94
2023-04-20T00:42:40.696Z,-18427.06
2023-04-20T00:45:43.300Z,-18425.53
2023-04-20T00:48:46.614Z,-18425.53
2023-04-20T00:51:49.815Z,-18424.03
2023-04-20T00:54:52.809Z,-18423.22
2023-04-20T00:57:55.429Z,-18420.31
2023-04-20T01:00:58.645Z,-18421.69
2023-04-20T01:04:01.433Z,-18421.97
2023-04-20T01:07:05.778Z,-18421.00
2023-04-20T01:10:10.353Z,-18419.50
2023-04-20T01:13:15.899Z,-18418.41
2023-04-20T01:16:18.665Z,-18417.44
2023-04-20T01:19:21.769Z,-18416.63
2023-04-20T01:22:24.447Z,-18414.84
2023-04-20T01:25:27.331Z,-18415.66
2023-04-20T01:28:29.975Z,-18414.28
2023-04-20T01:31:33.104Z,-18412.50
2023-04-20T01:34:36.086Z,-18413.47
2023-04-20T01:37:40.362Z,-18413.31
2023-04-20T01:40:43.135Z,-18411.81
2023-04-20T01:43:46.384Z,-18412.09
2023-04-20T01:46:49.116Z,-18411.53
2023-04-20T01:49:51.947Z,-18412.63
2023-04-20T01:52:54.561Z,-18411.12
2023-04-20T01:55:57.469Z,-18412.91
2023-04-20T01:59:00.134Z,-18412.09
2023-04-20T02:02:03.366Z,-18412.09
2023-04-20T02:05:08.848Z,-18413.19
2023-04-20T02:08:11.486Z,-18414.28
2023-04-20T02:11:15.589Z,-18414.28
2023-04-20T02:14:18.155Z,-18414.56
2023-04-20T02:17:21.286Z,-18411.81
2023-04-20T02:20:24.713Z,-18409.63
2023-04-20T02:23:27.408Z,-18408.53
2023-04-20T02:26:31.080Z,-18406.72
2023-04-20T02:29:33.624Z,-18405.50
2023-04-20T02:32:36.630Z,-18403.84
2023-04-20T02:35:39.197Z,-18404.00
2023-04-20T02:38:42.092Z,-18400.28
2023-04-20T02:41:44.819Z,-18398.91
2023-04-20T02:44:48.153Z,-18399.47
2023-04-20T02:47:51.026Z,-18398.91
2023-04-20T02:50:57.451Z,-18398.50
2023-04-20T02:54:00.335Z,-18397.81
2023-04-20T02:57:03.691Z,-18398.34
2023-04-20T03:00:08.965Z,-18398.63
2023-04-20T03:03:12.664Z,-18397.13
2023-04-20T03:06:15.712Z,-18396.69
2023-04-20T03:09:20.342Z,-18396.97
2023-04-20T03:12:23.881Z,-18395.34
2023-04-20T03:15:28.425Z,-18395.47
2023-04-20T03:18:31.353Z,-18396.16
2023-04-20T03:21:34.897Z,-18395.88
2023-04-20T03:24:37.649Z,-18396.16
2023-04-20T03:27:42.364Z,-18397.13
2023-04-20T03:30:45.330Z,-18397.25
2023-04-20T03:33:48.631Z,-18396.44
2023-04-20T03:36:51.691Z,-18396.69
2023-04-20T03:39:54.821Z,-18397.41
2023-04-20T03:42:57.532Z,-18398.63
2023-04-20T03:46:00.504Z,-18399.31
2023-04-20T03:49:06.853Z,-18400.97
2023-04-20T03:52:09.766Z,-18403.03
2023-04-20T03:55:12.872Z,-18405.91
2023-04-20T03:58:17.450Z,-18406.59
2023-04-20T04:01:20.422Z,-18408.53
2023-04-20T04:04:23.653Z,-18409.88
2023-04-20T04:07:26.545Z,-18410.84
2023-04-20T04:10:29.766Z,-18411.41
2023-04-20T04:13:34.420Z,-18413.19
2023-04-20T04:16:38.034Z,-18415.09
2023-04-20T04:19:40.742Z,-18418.13
2023-04-20T04:22:44.569Z,-18419.50
2023-04-20T04:25:49.425Z,-18421.00
2023-04-20T04:28:53.639Z,-18421.69
2023-04-20T04:31:56.324Z,-18423.06
2023-04-20T04:35:01.035Z,-18424.44
2023-04-20T04:38:04.087Z,-18425.00
2023-04-20T04:41:07.705Z,-18426.91
2023-04-20T04:44:11.215Z,-18430.75
2023-04-20T04:47:17.669Z,-18432.13
2023-04-20T04:50:21.809Z,-18434.06
2023-04-20T04:53:24.771Z,-18437.34
2023-04-20T04:56:27.366Z,-18440.78
2023-04-20T04:59:30.493Z,-18444.91
2023-04-20T05:02:33.567Z,-18447.50
2023-04-20T05:05:36.439Z,-18452.16
2023-04-20T05:08:39.104Z,-18455.03
2023-04-20T05:11:42.299Z,-18457.94
2023-04-20T05:14:45.137Z,-18460.69
2023-04-20T05:17:49.731Z,-18464.25
2023-04-20T05:21:03.030Z,-18468.91
2023-04-20T05:24:06.535Z,-18474.09
2023-04-20T05:27:09.674Z,-18479.19
2023-04-20T05:30:21.210Z,-18483.97
2023-04-20T05:33:25.328Z,-18489.88
2023-04-20T05:36:30.132Z,-18493.72
2023-04-20T05:39:32.757Z,-18495.50
2023-04-20T05:42:35.984Z,-18497.13
2023-04-20T05:45:38.625Z,-18499.06
2023-04-20T05:48:42.104Z,-18504.53
2023-04-20T05:51:44.729Z,-18509.06
2023-04-20T05:54:47.750Z,-18511.25
2023-04-20T05:57:52.430Z,-18516.59
2023-04-20T06:00:55.820Z,-18521.38
2023-04-20T06:03:59.099Z,-18523.97
2023-04-20T06:07:02.054Z,-18526.84
2023-04-20T06:10:06.303Z,-18533.16
2023-04-20T06:13:09.208Z,-18538.50
2023-04-20T06:16:12.138Z,-18543.97
2023-04-20T06:19:14.905Z,-18547.25
2023-04-20T06:22:19.261Z,-18544.22
2023-04-20T06:25:24.325Z,-18546.69
2023-04-20T06:28:27.432Z,-18551.75
2023-04-20T06:31:30.137Z,-18557.50
2023-04-20T06:34:33.007Z,-18556.41
2023-04-20T06:37:36.642Z,-18560.09
2023-04-20T06:40:39.701Z,-18560.94
2023-04-20T06:43:42.582Z,-18563.38
2023-04-20T06:46:45.528Z,-18565.03
2023-04-20T06:49:48.216Z,-18567.75
2023-04-20T06:52:51.271Z,-18570.50
2023-04-20T06:55:55.556Z,-18574.47
2023-04-20T06:58:58.509Z,-18579.78
2023-04-20T07:02:01.607Z,-18583.88
2023-04-20T07:05:04.790Z,-18587.44
2023-04-20T07:08:08.271Z,-18590.84
2023-04-20T07:11:11.401Z,-18596.72
2023-04-20T07:14:18.801Z,-18597.28
2023-04-20T07:17:21.794Z,-18601.50
2023-04-20T07:20:24.668Z,-18604.09
2023-04-20T07:23:27.677Z,-18606.97
2023-04-20T07:26:30.436Z,-18608.34
2023-04-20T07:29:34.193Z,-18616.25
2023-04-20T07:32:38.754Z,-18615.31
2023-04-20T07:35:41.776Z,-18617.75
2023-04-20T07:38:44.736Z,-18617.22
2023-04-20T07:41:47.719Z,-18623.09
2023-04-20T07:44:50.470Z,-18624.59
2023-04-20T07:47:55.204Z,-18628.28
2023-04-20T07:50:58.768Z,-18630.59
2023-04-20T07:54:01.694Z,-18634.97
2023-04-20T07:57:04.439Z,-18634.81
2023-04-20T08:00:08.956Z,-18640.13
2023-04-20T08:03:15.680Z,-18644.50
2023-04-20T08:06:18.825Z,-18645.47
2023-04-20T08:09:21.735Z,-18649.28
2023-04-20T08:12:25.416Z,-18648.03
2023-04-20T08:15:28.320Z,-18649.41
2023-04-20T08:18:31.804Z,-18651.59
2023-04-20T08:21:34.372Z,-18656.62
2023-04-20T08:24:37.883Z,-18662.91
2023-04-20T08:27:40.541Z,-18667.28
2023-04-20T08:30:43.577Z,-18665.50
2023-04-20T08:33:47.434Z,-18666.19
2023-04-20T08:36:51.271Z,-18671.34
2023-04-20T08:39:53.874Z,-18672.59
2023-04-20T08:42:57.440Z,-18676.69
2023-04-20T08:46:04.309Z,-18680.63
2023-04-20T08:49:12.626Z,-18677.63
2023-04-20T08:52:15.230Z,-18674.91
2023-04-20T08:55:19.401Z,-18676.94
2023-04-20T08:58:22.353Z,-18680.63
2023-04-20T09:01:34.788Z,-18682.81
2023-04-20T09:04:40.260Z,-18682.53
2023-04-20T09:07:53.369Z,-18687.72
2023-04-20T09:10:56.131Z,-18694.94
2023-04-20T09:14:06.913Z,-18694.94
2023-04-20T09:17:14.202Z,-18692.06
2023-04-20T09:20:33.907Z,-18698.59
2023-04-20T09:23:36.597Z,-18702.28
2023-04-20T09:26:39.617Z,-18705.81
2023-04-20T09:29:42.377Z,-18700.91
2023-04-20T09:33:00.396Z,-18707.84
2023-04-20T09:36:05.402Z,-18706.78
2023-04-20T09:39:08.250Z,-18709.75
2023-04-20T09:42:15.669Z,-18705.00
2023-04-20T09:45:18.990Z,-18708.69
2023-04-20T09:48:21.892Z,-18719.41
2023-04-20T09:51:29.929Z,-18723.22
2023-04-20T09:54:32.812Z,-18726.75
2023-04-20T09:57:36.312Z,-18727.72
2023-04-20T10:00:39.074Z,-18726.22
2023-04-20T10:03:43.466Z,-18728.53
2023-04-20T10:07:03.183Z,-18733.56
2023-04-20T10:10:12.578Z,-18733.72
2023-04-20T10:13:17.085Z,-18732.34
2023-04-20T10:16:21.260Z,-18739.81
2023-04-20T10:19:24.200Z,-18742.69
2023-04-20T10:22:33.448Z,-18739.16
2023-04-20T10:25:36.541Z,-18736.16
2023-04-20T10:28:41.714Z,-18740.38
2023-04-20T10:31:44.576Z,-18744.16
2023-04-20T10:34:47.736Z,-18748.53
2023-04-20T10:37:51.581Z,-18749.75
2023-04-20T10:40:54.808Z,-18749.59
2023-04-20T10:44:09.737Z,-18756.69
2023-04-20T10:47:14.379Z,-18758.84
2023-04-20T10:50:18.221Z,-18750.97
2023-04-20T10:53:22.894Z,-18753.69
2023-04-20T10:56:26.808Z,-18767.81
2023-04-20T10:59:29.643Z,-18764.81
2023-04-20T11:02:32.571Z,-18756.28
2023-04-20T11:05:35.769Z,-18759.13
2023-04-20T11:08:40.251Z,-18764.00
2023-04-20T11:11:43.125Z,-18764.16
2023-04-20T11:14:52.937Z,-18767.28
2023-04-20T11:17:55.887Z,-18768.75
2023-04-20T11:20:58.491Z,-18769.56
2023-04-20T11:24:01.624Z,-18774.72
2023-04-20T11:27:04.952Z,-18777.84
2023-04-20T11:30:09.956Z,-18783.03
2023-04-20T11:33:14.223Z,-18783.97
2023-04-20T11:36:24.827Z,-18780.84
2023-04-20T11:39:28.542Z,-18789.13
2023-04-20T11:42:31.517Z,-18787.91
2023-04-20T11:45:36.231Z,-18782.34
2023-04-20T11:48:39.594Z,-18780.44
2023-04-20T11:51:43.430Z,-18782.88
2023-04-20T11:54:46.432Z,-18779.63
2023-04-20T11:57:50.137Z,-18778.66
2023-04-20T12:00:52.979Z,-18774.19
2023-04-20T12:03:56.087Z,-18780.84
2023-04-20T12:06:59.388Z,-18789.13
2023-04-20T12:10:02.769Z,-18788.03
2023-04-20T12:13:05.731Z,-18789.81
2023-04-20T12:16:08.947Z,-18789.53
2023-04-20T12:19:12.079Z,-18796.72
2023-04-20T12:22:18.145Z,-18797.94
2023-04-20T12:25:20.964Z,-18793.34
2023-04-20T12:28:23.892Z,-18793.47
2023-04-20T12:31:26.800Z,-18796.03
2023-04-20T12:34:30.817Z,-18803.63
2023-04-20T12:37:33.768Z,-18806.09
2023-04-20T12:40:36.702Z,-18812.31
2023-04-20T12:43:39.303Z,-18808.66
2023-04-20T12:46:42.576Z,-18807.16
2023-04-20T12:49:45.421Z,-18809.88
2023-04-20T12:52:48.339Z,-18818.16
2023-04-20T12:55:57.558Z,-18821.94
2023-04-20T12:59:03.632Z,-18813.81
2023-04-20T13:02:06.558Z,-18810.41
2023-04-20T13:05:10.240Z,-18816.94
2023-04-20T13:08:13.012Z,-18815.72
2023-04-20T13:11:17.350Z,-18820.44
2023-04-20T13:14:20.372Z,-18825.34
2023-04-20T13:17:23.490Z,-18827.78
2023-04-20T13:20:29.322Z,-18826.81
2023-04-20T13:23:32.202Z,-18825.75
2023-04-20T13:26:34.910Z,-18809.34
2023-04-20T13:29:38.618Z,-18803.22
2023-04-20T13:32:41.246Z,-18828.03
2023-04-20T13:35:44.243Z,-18847.81
2023-04-20T13:38:55.125Z,-18841.72
2023-04-20T13:41:58.345Z,-18842.13
2023-04-20T13:45:01.330Z,-18831.28
2023-04-20T13:48:04.382Z,-18827.09
2023-04-20T13:51:07.124Z,-18825.59
2023-04-20T13:54:10.036Z,-18814.22
2023-04-20T13:57:12.636Z,-18795.50
2023-04-20T14:00:16.090Z,-18798.22
2023-04-20T14:03:20.262Z,-18816.13
2023-04-20T14:06:23.116Z,-18837.25
2023-04-20T14:09:28.306Z,-18848.91
2023-04-20T14:12:30.876Z,-18856.06
2023-04-20T14:15:34.677Z,-18857.97
2023-04-20T14:18:37.908Z,-18858.91
2023-04-20T14:21:44.056Z,-18862.44
2023-04-20T14:24:47.664Z,-18855.81
2023-04-20T14:27:50.604Z,-18861.50
2023-04-20T14:30:53.242Z,-18865.69
2023-04-20T14:33:56.354Z,-18873.53
2023-04-20T14:36:58.968Z,-18876.91
2023-04-20T14:40:01.928Z,-18881.38
2023-04-20T14:43:04.713Z,-18887.19
2023-04-20T14:46:08.000Z,-18901.38
2023-04-20T14:49:10.830Z,-18914.06
2023-04-20T14:52:13.667Z,-18941.47
2023-04-20T14:55:16.697Z,-18973.84
2023-04-20T14:58:20.572Z,-18992.28
2023-04-20T15:01:23.161Z,-18991.19
2023-04-20T15:04:26.505Z,-18998.87
2023-04-20T15:07:29.121Z,-19018.09
2023-04-20T15:10:36.495Z,-19038.00
2023-04-20T15:13:42.382Z,-19066.75
2023-04-20T15:16:45.390Z,-19095.44
2023-04-20T15:19:47.950Z,-19097.56
2023-04-20T15:22:50.933Z,-19100.78
2023-04-20T15:25:53.402Z,-19106.81
2023-04-20T15:28:57.631Z,-19129.72
2023-04-20T15:32:01.633Z,-19147.62
2023-04-20T15:35:04.854Z,-19131.44
2023-04-20T15:38:07.464Z,-19074.50
2023-04-20T15:41:10.553Z,-19115.53
2023-04-20T15:44:13.251Z,-19175.81
2023-04-20T15:47:16.031Z,-19199.69
2023-04-20T15:50:18.741Z,-19185.56
2023-04-20T15:53:22.254Z,-19199.03
2023-04-20T15:56:25.144Z,-19167.13
2023-04-20T15:59:28.468Z,-19129.16
2023-04-20T16:02:31.599Z,-19090.34
2023-04-20T16:05:34.578Z,-18973.28
2023-04-20T16:08:37.829Z,-18916.22
2023-04-20T16:11:40.835Z,-18868.41
2023-04-20T16:14:43.673Z,-18834.28
2023-04-20T16:17:46.649Z,-18808.78
2023-04-20T16:20:49.202Z,-18796.03
2023-04-20T16:23:55.622Z,-18780.31
2023-04-20T16:27:01.124Z,-18765.50
2023-04-20T16:30:04.329Z,-18758.16
2023-04-20T16:33:08.023Z,-18753.81
2023-04-20T16:36:12.298Z,-18745.81
2023-04-20T16:39:15.078Z,-18738.87
2023-04-20T16:42:17.930Z,-18733.28
2023-04-20T16:45:20.531Z,-18734.13
2023-04-20T16:48:23.390Z,-18731.13
2023-04-20T16:51:26.007Z,-18726.22
2023-04-20T16:54:29.113Z,-18718.59
2023-04-20T16:57:32.050Z,-18714.94
2023-04-20T17:00:35.779Z,-18712.34
2023-04-20T17:03:38.623Z,-18713.84
2023-04-20T17:06:41.498Z,-18709.91
2023-04-20T17:09:44.369Z,-18703.09
2023-04-20T17:12:47.617Z,-18701.31
2023-04-20T17:15:50.147Z,-18698.31
2023-04-20T17:18:53.524Z,-18693.56
2023-04-20T17:21:57.505Z,-18688.94
2023-04-20T17:25:00.757Z,-18687.97
2023-04-20T17:28:03.642Z,-18682.41
2023-04-20T17:31:06.581Z,-18679.94
2023-04-20T17:34:10.556Z,-18677.06
2023-04-20T17:37:13.972Z,-18674.22
2023-04-20T17:40:16.823Z,-18676.25
2023-04-20T17:43:19.938Z,-18671.78
2023-04-20T17:46:23.135Z,-18669.44
2023-04-20T17:49:26.183Z,-18667.81
2023-04-20T17:52:29.301Z,-18666.88
2023-04-20T17:55:35.504Z,-18664.41
2023-04-20T17:58:38.478Z,-18663.31
2023-04-20T18:01:41.399Z,-18661.28
2023-04-20T18:04:44.763Z,-18660.47
2023-04-20T18:07:47.432Z,-18658.00
2023-04-20T18:10:50.609Z,-18658.13
2023-04-20T18:13:53.465Z,-18659.78
2023-04-20T18:16:56.710Z,-18657.59
2023-04-20T18:19:59.374Z,-18655.69
2023-04-20T18:23:02.354Z,-18653.50
2023-04-20T18:26:04.948Z,-18652.56
2023-04-20T18:29:07.914Z,-18649.81
2023-04-20T18:32:10.532Z,-18648.59
2023-04-20T18:35:13.517Z,-18647.91
2023-04-20T18:38:16.116Z,-18651.59
2023-04-20T18:41:19.302Z,-18651.06
2023-04-20T18:44:22.245Z,-18649.12
2023-04-20T18:47:27.110Z,-18648.03
2023-04-20T18:50:29.786Z,-18649.28
2023-04-20T18:53:34.458Z,-18650.09
2023-04-20T18:56:38.731Z,-18648.72
2023-04-20T18:59:41.628Z,-18646.41
2023-04-20T19:02:44.486Z,-18643.97
2023-04-20T19:05:47.895Z,-18642.88
2023-04-20T19:08:51.215Z,-18648.03
2023-04-20T19:11:54.298Z,-18642.59
2023-04-20T19:14:57.206Z,-18641.38
2023-04-20T19:18:00.502Z,-18643.53
2023-04-20T19:21:03.627Z,-18642.19
2023-04-20T19:24:07.193Z,-18640.13
2023-04-20T19:27:09.934Z,-18641.78
2023-04-20T19:30:13.329Z,-18640.81
2023-04-20T19:33:16.055Z,-18632.38
2023-04-20T19:36:19.571Z,-18628.69
2023-04-20T19:39:22.444Z,-18625.94
2023-04-20T19:42:25.464Z,-18623.75
2023-04-20T19:45:28.353Z,-18620.09
2023-04-20T19:48:31.260Z,-18617.22
2023-04-20T19:51:33.919Z,-18614.91
2023-04-20T19:54:36.762Z,-18611.47
2023-04-20T19:57:39.425Z,-18609.84
2023-04-20T20:00:42.309Z,-18608.63
2023-04-20T20:03:45.336Z,-18605.59
2023-04-20T20:06:50.579Z,-18602.75
2023-04-20T20:09:53.576Z,-18600.00
2023-04-20T20:12:56.304Z,-18598.09
2023-04-20T20:16:00.335Z,-18594.69
2023-04-20T20:19:02.900Z,-18591.94
2023-04-20T20:22:05.807Z,-18592.09
2023-04-20T20:25:08.519Z,-18591.00
2023-04-20T20:28:11.499Z,-18590.19
2023-04-20T20:31:14.290Z,-18587.59
2023-04-20T20:34:17.280Z,-18585.81
2023-04-20T20:37:21.372Z,-18583.06
2023-04-20T20:40:24.474Z,-18580.75
2023-04-20T20:43:28.509Z,-18579.78
2023-04-20T20:46:31.854Z,-18578.16
2023-04-20T20:49:34.693Z,-18576.09
2023-04-20T20:52:37.838Z,-18573.22
2023-04-20T20:55:40.537Z,-18569.00
2023-04-20T20:58:43.724Z,-18566.13
2023-04-20T21:01:46.665Z,-18563.38
2023-04-20T21:04:49.605Z,-18563.38
2023-04-20T21:07:52.347Z,-18560.25
2023-04-20T21:10:55.401Z,-18557.09
2023-04-20T21:14:01.911Z,-18553.53
2023-04-20T21:17:05.323Z,-18552.84
2023-04-20T21:20:09.458Z,-18551.75
2023-04-20T21:23:12.525Z,-18550.94
2023-04-20T21:26:16.288Z,-18550.25
2023-04-20T21:29:20.212Z,-18550.66
2023-04-20T21:32:23.891Z,-18552.31
2023-04-20T21:35:27.043Z,-18554.63
2023-04-20T21:38:29.653Z,-18556.00
2023-04-20T21:41:32.539Z,-18555.03
2023-04-20T21:44:35.341Z,-18556.28
2023-04-20T21:47:38.188Z,-18556.41
2023-04-20T21:50:41.364Z,-18555.47
2023-04-20T21:53:44.729Z,-18553.81
2023-04-20T21:56:47.502Z,-18552.59
2023-04-20T21:59:50.678Z,-18549.56
2023-04-20T22:02:53.381Z,-18546.97
2023-04-20T22:05:56.339Z,-18542.47
2023-04-20T22:08:58.970Z,-18539.31
2023-04-20T22:12:02.066Z,-18538.22
2023-04-20T22:15:05.364Z,-18537.94
2023-04-20T22:18:11.295Z,-18537.25
2023-04-20T22:21:14.120Z,-18535.06
2023-04-20T22:24:17.111Z,-18534.94
2023-04-20T22:27:19.663Z,-18533.00
2023-04-20T22:30:22.834Z,-18532.19
2023-04-20T22:33:25.619Z,-18529.31
2023-04-20T22:36:28.471Z,-18526.31
2023-04-20T22:39:31.210Z,-18522.88
2023-04-20T22:42:36.649Z,-18521.09
2023-04-20T22:45:39.276Z,-18517.13
2023-04-20T22:48:42.402Z,-18514.53
2023-04-20T22:51:45.709Z,-18512.47
2023-04-20T22:54:48.712Z,-18511.66
2023-04-20T22:57:51.275Z,-18510.44
2023-04-20T23:00:54.224Z,-18509.19
2023-04-20T23:03:57.265Z,-18508.78
2023-04-20T23:07:01.280Z,-18506.72
2023-04-20T23:10:05.994Z,-18505.50
2023-04-20T23:13:16.848Z,-18505.34
2023-04-20T23:16:19.580Z,-18504.25
2023-04-20T23:19:22.461Z,-18503.16
2023-04-20T23:22:25.042Z,-18502.19
2023-04-20T23:25:28.271Z,-18500.69
2023-04-20T23:28:30.860Z,-18499.75
2023-04-20T23:31:33.789Z,-18499.19
2023-04-20T23:34:36.530Z,-18498.78
2023-04-20T23:37:39.354Z,-18498.38
2023-04-20T23:40:41.998Z,-18496.72
2023-04-20T23:43:44.837Z,-18495.50
2023-04-20T23:46:47.483Z,-18494.25
2023-04-20T23:49:50.391Z,-18492.87
2023-04-20T23:52:53.041Z,-18493.03
2023-04-20T23:55:56.559Z,-18492.47
2023-04-20T23:58:59.501Z,-18492.47
